Time;durP1;ratioP1;P1;durP2;ratioP2;P2;SDS_P1;SDS_P2;PMS_P1;PMS_P2;Temp;Humidity;BMP_temperature;BMP_pressure;BME280_temperature;BME280_humidity;BME280_pressure;Samples;Min_cycle;Max_cycle;Signal;HPM_P1;HPM_P2
2022/11/23 00:01:50;;;;;;;65.63;34.10;;;1.70;1.00;;;;;;6214411;28;20240;-53
2022/11/23 00:04:53;;;;;;;70.23;34.57;;;1.80;1.00;;;;;;6241943;28;20790;-54
2022/11/23 00:07:56;;;;;;;64.20;32.23;;;1.50;1.00;;;;;;6241806;28;20269;-54
2022/11/23 00:10:59;;;;;;;64.67;34.53;;;1.50;1.00;;;;;;6237048;28;20629;-54
2022/11/23 00:14:04;;;;;;;71.50;34.17;;;1.60;1.00;;;;;;6230902;28;20235;-54
2022/11/23 00:17:07;;;;;;;74.13;35.53;;;1.50;1.00;;;;;;6230345;28;20251;-54
2022/11/23 00:20:10;;;;;;;65.27;33.30;;;1.50;1.00;;;;;;6236749;28;20235;-53
2022/11/23 00:23:13;;;;;;;63.53;33.13;;;1.60;1.00;;;;;;6237835;28;20631;-55
2022/11/23 00:26:18;;;;;;;65.47;34.87;;;1.50;1.00;;;;;;6236437;28;20243;-55
2022/11/23 00:29:22;;;;;;;63.23;32.70;;;1.60;1.00;;;;;;6212690;28;20402;-54
2022/11/23 00:32:26;;;;;;;58.77;32.20;;;1.70;1.00;;;;;;6212934;28;20246;-53
2022/11/23 00:35:29;;;;;;;64.63;33.00;;;1.80;1.00;;;;;;6212947;28;20239;-53
2022/11/23 00:38:32;;;;;;;64.10;32.87;;;1.50;1.00;;;;;;6229388;28;20234;-52
2022/11/23 00:41:35;;;;;;;56.57;32.50;;;1.50;1.00;;;;;;6236678;28;25457;-53
2022/11/23 00:44:39;;;;;;;60.93;32.83;;;1.70;1.00;;;;;;6217761;28;20327;-54
2022/11/23 00:47:42;;;;;;;56.03;31.93;;;1.60;1.00;;;;;;6218689;28;20461;-54
2022/11/23 00:50:45;;;;;;;56.30;31.40;;;1.60;1.00;;;;;;6222819;28;20235;-53
2022/11/23 00:53:49;;;;;;;59.87;32.17;;;1.70;1.00;;;;;;6211725;28;20273;-55
2022/11/23 00:56:52;;;;;;;62.63;34.20;;;1.70;1.00;;;;;;6211803;28;20235;-55
2022/11/23 00:59:57;;;;;;;64.67;33.83;;;1.60;1.00;;;;;;6211746;28;20809;-54
2022/11/23 01:03:00;;;;;;;58.40;32.67;;;1.50;1.00;;;;;;6243188;28;20245;-54
2022/11/23 01:06:07;;;;;;;65.63;34.37;;;1.60;1.00;;;;;;6234571;28;20256;-55
2022/11/23 01:09:14;;;;;;;57.60;33.10;;;1.50;1.00;;;;;;6232984;28;20235;-55
2022/11/23 01:12:17;;;;;;;61.80;33.57;;;1.80;1.00;;;;;;6238021;28;20229;-53
2022/11/23 01:15:22;;;;;;;59.37;31.43;;;1.50;1.00;;;;;;6228880;28;20235;-52
2022/11/23 01:18:25;;;;;;;55.43;31.63;;;1.40;1.00;;;;;;6222987;28;20239;-53
2022/11/23 01:21:30;;;;;;;58.57;31.23;;;1.70;1.00;;;;;;6235598;28;20234;-58
2022/11/23 01:24:33;;;;;;;54.07;31.43;;;1.50;1.00;;;;;;6234447;28;20748;-53
2022/11/23 01:27:36;;;;;;;60.50;31.53;;;1.60;1.00;;;;;;6235240;28;20238;-53
2022/11/23 01:30:40;;;;;;;59.60;31.73;;;1.40;1.00;;;;;;6214987;28;20235;-55
2022/11/23 01:33:43;;;;;;;57.23;31.20;;;1.50;1.00;;;;;;6211717;28;20246;-55
2022/11/23 01:36:46;;;;;;;52.33;31.00;;;1.40;1.00;;;;;;6210889;28;20265;-55
2022/11/23 01:39:49;;;;;;;60.53;33.20;;;1.60;1.00;;;;;;6234999;28;20247;-52
2022/11/23 01:42:55;;;;;;;57.63;30.73;;;1.60;1.00;;;;;;6236162;28;20234;-53
2022/11/23 01:46:00;;;;;;;60.60;33.50;;;1.70;1.00;;;;;;6231695;28;20258;-53
2022/11/23 01:49:06;;;;;;;53.60;31.67;;;1.80;1.00;;;;;;6227038;28;20643;-54
2022/11/23 01:52:12;;;;;;;65.53;32.83;;;1.70;1.00;;;;;;6219041;28;20247;-53
2022/11/23 01:55:16;;;;;;;63.17;32.20;;;1.90;1.00;;;;;;6210442;28;20232;-53
2022/11/23 01:58:23;;;;;;;52.97;31.50;;;1.90;1.00;;;;;;6210498;28;20239;-54
2022/11/23 02:01:27;;;;;;;53.03;31.57;;;2.00;1.00;;;;;;6210458;28;20235;-53
2022/11/23 02:04:34;;;;;;;59.60;32.93;;;1.80;1.00;;;;;;6210416;28;20239;-54
2022/11/23 02:07:37;;;;;;;60.27;31.97;;;1.90;1.00;;;;;;6210009;28;20752;-54
2022/11/23 02:10:41;;;;;;;57.70;32.50;;;1.80;1.00;;;;;;6233948;28;20237;-53
2022/11/23 02:13:46;;;;;;;49.67;29.30;;;1.90;1.00;;;;;;6238914;28;21315;-54
2022/11/23 02:16:51;;;;;;;55.77;31.17;;;1.90;1.00;;;;;;6229182;28;20246;-53
2022/11/23 02:20:01;;;;;;;58.33;32.33;;;2.10;1.00;;;;;;6234676;28;20246;-54
2022/11/23 02:23:16;;;;;;;51.03;30.27;;;2.10;1.00;;;;;;6234845;28;20231;-58
2022/11/23 02:26:23;;;;;;;49.97;31.40;;;2.00;1.00;;;;;;6223450;28;20411;-56
2022/11/23 02:29:27;;;;;;;53.33;31.27;;;2.20;1.00;;;;;;6210491;28;20232;-54
2022/11/23 02:32:33;;;;;;;55.93;29.87;;;2.00;1.00;;;;;;6210357;28;20872;-54
2022/11/23 02:35:36;;;;;;;56.63;32.50;;;2.00;1.00;;;;;;6210139;28;20261;-55
2022/11/23 02:38:39;;;;;;;56.37;31.27;;;2.00;1.00;;;;;;6203496;28;20478;-54
2022/11/23 02:41:46;;;;;;;57.57;31.33;;;2.00;1.00;;;;;;6202408;28;20653;-53
2022/11/23 02:45:00;;;;;;;53.80;30.03;;;2.00;1.00;;;;;;6208214;28;20398;-54
2022/11/23 02:48:03;;;;;;;53.30;29.23;;;2.00;1.00;;;;;;6202625;28;20391;-54
2022/11/23 02:51:06;;;;;;;57.17;31.40;;;2.00;1.00;;;;;;6209359;28;20234;-54
2022/11/23 02:54:09;;;;;;;55.67;31.90;;;2.00;1.00;;;;;;6209904;28;20239;-54
2022/11/23 02:57:14;;;;;;;55.53;31.33;;;2.00;1.00;;;;;;6192765;28;20495;-54
2022/11/23 03:00:17;;;;;;;48.30;30.57;;;2.00;1.00;;;;;;6185104;28;20239;-53
2022/11/23 03:03:20;;;;;;;50.07;30.23;;;2.10;1.00;;;;;;6185405;28;20239;-54
2022/11/23 03:06:23;;;;;;;50.70;29.60;;;2.20;1.00;;;;;;6184795;28;20335;-54
2022/11/23 03:09:27;;;;;;;51.47;30.57;;;2.00;1.00;;;;;;6208850;28;20250;-54
2022/11/23 03:12:31;;;;;;;46.33;29.30;;;1.90;1.00;;;;;;6205765;28;20235;-53
2022/11/23 03:15:34;;;;;;;56.80;29.83;;;1.90;1.00;;;;;;6185638;28;20240;-53
2022/11/23 03:18:37;;;;;;;50.10;30.20;;;1.90;1.00;;;;;;6205051;28;20239;-54
2022/11/23 03:21:40;;;;;;;55.57;31.07;;;1.70;1.00;;;;;;6208553;28;20231;-54
2022/11/23 03:24:43;;;;;;;51.50;31.10;;;2.10;1.00;;;;;;6210357;28;20740;-53
2022/11/23 03:27:47;;;;;;;56.73;31.50;;;1.90;1.00;;;;;;6211176;28;20235;-51
2022/11/23 03:30:50;;;;;;;53.43;31.83;;;1.70;1.00;;;;;;6194669;28;20243;-54
2022/11/23 03:33:53;;;;;;;59.20;32.53;;;1.70;1.00;;;;;;6209013;28;20254;-52
2022/11/23 03:36:56;;;;;;;49.67;31.63;;;1.80;1.00;;;;;;6213904;28;20246;-54
2022/11/23 03:39:59;;;;;;;50.60;29.33;;;1.80;1.00;;;;;;6212744;28;20630;-52
2022/11/23 03:43:04;;;;;;;56.73;30.57;;;1.60;1.00;;;;;;6209953;28;20243;-54
2022/11/23 03:46:07;;;;;;;54.53;30.77;;;1.50;1.00;;;;;;6214269;28;20254;-54
2022/11/23 03:49:10;;;;;;;51.03;29.63;;;1.60;1.00;;;;;;6207764;28;20243;-54
2022/11/23 03:52:13;;;;;;;59.77;31.80;;;1.70;1.00;;;;;;6213839;28;20246;-54
2022/11/23 03:55:16;;;;;;;53.97;30.87;;;2.00;1.00;;;;;;6208084;28;20231;-53
2022/11/23 03:58:21;;;;;;;56.77;31.10;;;1.40;1.00;;;;;;6189818;28;20730;-53
2022/11/23 04:01:24;;;;;;;54.30;30.70;;;1.70;1.00;;;;;;6189256;28;20816;-53
2022/11/23 04:04:27;;;;;;;57.40;33.07;;;1.50;1.00;;;;;;6189006;28;20390;-54
2022/11/23 04:07:30;;;;;;;54.13;30.63;;;1.70;1.00;;;;;;6197297;28;20417;-53
2022/11/23 04:10:33;;;;;;;56.47;31.63;;;1.40;1.00;;;;;;6215706;28;20739;-53
2022/11/23 04:13:38;;;;;;;47.47;30.73;;;1.50;1.00;;;;;;6204519;28;20232;-58
2022/11/23 04:16:41;;;;;;;54.07;29.77;;;1.60;1.00;;;;;;6189304;28;20252;-53
2022/11/23 04:19:44;;;;;;;52.17;30.77;;;1.60;1.00;;;;;;6210418;28;20239;-54
2022/11/23 04:22:47;;;;;;;52.03;29.87;;;1.60;1.00;;;;;;6196422;28;20235;-53
2022/11/23 04:25:50;;;;;;;45.70;28.90;;;1.50;1.00;;;;;;6206852;28;20248;-53
2022/11/23 04:28:55;;;;;;;54.60;29.30;;;1.60;1.00;;;;;;6188802;28;20251;-53
2022/11/23 04:31:57;;;;;;;54.17;31.10;;;1.60;1.00;;;;;;6181743;28;20246;-54
2022/11/23 04:35:00;;;;;;;54.13;29.57;;;1.60;1.00;;;;;;6209503;28;20608;-53
2022/11/23 04:38:03;;;;;;;59.27;29.97;;;1.70;1.00;;;;;;6207179;28;20641;-54
2022/11/23 04:41:06;;;;;;;50.00;29.57;;;1.50;1.00;;;;;;6214517;28;20925;-53
2022/11/23 04:44:11;;;;;;;56.23;29.33;;;1.50;1.00;;;;;;6208663;28;20238;-53
2022/11/23 04:47:14;;;;;;;50.20;29.57;;;1.60;1.00;;;;;;6211901;28;20638;-52
2022/11/23 04:50:17;;;;;;;54.53;29.73;;;1.60;1.00;;;;;;6207148;28;20266;-54
2022/11/23 04:53:20;;;;;;;52.27;30.53;;;1.50;1.00;;;;;;6211690;28;20247;-53
2022/11/23 04:56:23;;;;;;;51.87;30.13;;;1.60;1.00;;;;;;6211754;28;20748;-53
2022/11/23 04:59:27;;;;;;;51.10;30.57;;;1.60;1.00;;;;;;6211817;28;20236;-53
2022/11/23 05:02:30;;;;;;;49.30;30.07;;;1.40;1.00;;;;;;6217208;28;20386;-53
2022/11/23 05:05:33;;;;;;;56.83;30.13;;;1.40;1.00;;;;;;6211213;28;20249;-53
2022/11/23 05:08:37;;;;;;;51.80;29.27;;;1.50;1.00;;;;;;6208114;28;20235;-54
2022/11/23 05:11:40;;;;;;;49.07;28.67;;;1.50;1.00;;;;;;6203947;28;20825;-54
2022/11/23 05:14:44;;;;;;;49.77;29.60;;;1.40;1.00;;;;;;6214146;28;20238;-53
2022/11/23 05:17:47;;;;;;;51.13;29.57;;;1.50;1.00;;;;;;6208506;28;20626;-55
2022/11/23 05:20:50;;;;;;;46.40;28.77;;;1.40;1.00;;;;;;6211648;28;20240;-54
2022/11/23 05:23:53;;;;;;;52.83;29.93;;;1.50;1.00;;;;;;6210517;28;20226;-53
2022/11/23 05:26:56;;;;;;;46.03;28.33;;;1.50;1.00;;;;;;6222404;28;20234;-53
2022/11/23 05:30:01;;;;;;;46.60;29.17;;;1.50;1.00;;;;;;6207751;28;20231;-53
2022/11/23 05:33:04;;;;;;;50.37;30.57;;;1.70;1.00;;;;;;6206970;28;20375;-52
2022/11/23 05:36:08;;;;;;;51.53;29.67;;;1.70;1.00;;;;;;6208932;28;20258;-54
2022/11/23 05:39:11;;;;;;;44.20;27.97;;;1.70;1.00;;;;;;6206227;28;20251;-53
2022/11/23 05:42:14;;;;;;;51.13;30.13;;;1.70;1.00;;;;;;6210785;28;20491;-54
2022/11/23 05:45:18;;;;;;;47.73;29.20;;;1.70;1.00;;;;;;6218250;28;20239;-55
2022/11/23 05:48:21;;;;;;;48.63;27.73;;;1.80;1.00;;;;;;6209941;28;20244;-54
2022/11/23 05:51:24;;;;;;;50.13;29.07;;;1.70;1.00;;;;;;6217050;28;20235;-54
2022/11/23 05:54:27;;;;;;;45.00;28.00;;;1.80;1.00;;;;;;6212773;28;20219;-53
2022/11/23 05:57:30;;;;;;;48.17;29.57;;;1.70;1.00;;;;;;6203579;28;20322;-53
2022/11/23 06:00:34;;;;;;;48.43;26.97;;;1.70;1.00;;;;;;6217961;28;20246;-53
2022/11/23 06:03:37;;;;;;;42.43;26.87;;;1.70;1.00;;;;;;6200887;28;20235;-53
2022/11/23 06:06:40;;;;;;;50.40;28.50;;;1.70;1.00;;;;;;6208619;28;20231;-53
2022/11/23 06:09:43;;;;;;;44.73;28.67;;;2.00;1.00;;;;;;6195371;28;20244;-52
2022/11/23 06:12:46;;;;;;;44.97;28.57;;;1.90;1.00;;;;;;6223512;28;20504;-52
2022/11/23 06:15:50;;;;;;;48.30;28.27;;;1.70;1.00;;;;;;6234058;28;20317;-54
2022/11/23 06:18:53;;;;;;;49.53;29.13;;;1.70;1.00;;;;;;6234808;28;20416;-52
2022/11/23 06:21:57;;;;;;;43.00;26.30;;;1.70;1.00;;;;;;6233974;28;20237;-54
2022/11/23 06:25:00;;;;;;;46.47;27.70;;;1.60;1.00;;;;;;6237199;28;20246;-53
2022/11/23 06:28:04;;;;;;;48.37;28.43;;;1.50;1.00;;;;;;6228773;28;20246;-54
2022/11/23 06:31:10;;;;;;;46.70;28.23;;;1.60;1.00;;;;;;6235065;28;20242;-53
2022/11/23 06:34:13;;;;;;;41.93;26.77;;;1.60;1.00;;;;;;6232125;28;20744;-54
2022/11/23 06:37:16;;;;;;;48.80;27.50;;;1.70;1.00;;;;;;6231330;28;20233;-54
2022/11/23 06:40:19;;;;;;;44.67;27.87;;;1.60;1.00;;;;;;6234819;28;20238;-53
2022/11/23 06:43:22;;;;;;;42.37;26.37;;;1.60;1.00;;;;;;6233140;28;20235;-54
2022/11/23 06:46:26;;;;;;;44.67;26.30;;;1.40;1.00;;;;;;6231500;28;20234;-53
2022/11/23 06:49:29;;;;;;;40.30;26.27;;;1.60;1.00;;;;;;6233679;28;20238;-55
2022/11/23 06:52:33;;;;;;;40.40;25.63;;;1.40;1.00;;;;;;6232835;28;20794;-54
2022/11/23 06:55:36;;;;;;;41.33;27.63;;;1.30;1.00;;;;;;6232163;28;20831;-53
2022/11/23 06:58:38;;;;;;;42.60;26.90;;;1.50;1.00;;;;;;6231482;28;20246;-55
2022/11/23 07:01:43;;;;;;;43.00;27.27;;;1.30;1.00;;;;;;6232341;28;20742;-54
2022/11/23 07:04:46;;;;;;;41.47;25.43;;;1.30;1.00;;;;;;6237626;28;20239;-53
2022/11/23 07:07:49;;;;;;;44.57;26.77;;;1.30;1.00;;;;;;6237184;28;20234;-54
2022/11/23 07:10:52;;;;;;;39.50;26.87;;;1.40;1.00;;;;;;6240047;28;20313;-54
2022/11/23 07:13:55;;;;;;;45.93;27.80;;;1.40;1.00;;;;;;6240546;28;20242;-54
2022/11/23 07:16:59;;;;;;;43.23;27.30;;;1.40;1.00;;;;;;6205822;28;20243;-52
2022/11/23 07:20:02;;;;;;;45.73;27.93;;;1.40;1.00;;;;;;6223533;28;20612;-53
2022/11/23 07:23:07;;;;;;;46.67;28.50;;;1.40;1.00;;;;;;6214615;28;20239;-53
2022/11/23 07:26:10;;;;;;;46.20;27.50;;;1.30;1.00;;;;;;6227453;28;20247;-53
2022/11/23 07:29:13;;;;;;;44.63;27.13;;;1.50;1.00;;;;;;6235255;28;20246;-54
2022/11/23 07:32:17;;;;;;;46.87;28.10;;;1.50;1.00;;;;;;6238908;28;20239;-53
2022/11/23 07:35:20;;;;;;;47.50;29.97;;;1.40;1.00;;;;;;6235336;28;20254;-52
2022/11/23 07:38:23;;;;;;;47.80;29.33;;;1.50;1.00;;;;;;6229325;28;20239;-53
2022/11/23 07:41:27;;;;;;;48.67;29.10;;;1.40;1.00;;;;;;6239740;28;20226;-53
2022/11/23 07:44:30;;;;;;;43.37;26.50;;;1.60;1.00;;;;;;6237686;28;20234;-53
2022/11/23 07:47:34;;;;;;;47.53;29.90;;;1.50;1.00;;;;;;6234344;28;20226;-54
2022/11/23 07:50:38;;;;;;;46.17;27.80;;;1.90;1.00;;;;;;6237062;28;20234;-54
2022/11/23 07:53:41;;;;;;;47.17;28.27;;;1.90;1.00;;;;;;6236252;28;20226;-53
2022/11/23 07:56:44;;;;;;;50.13;29.83;;;1.80;1.00;;;;;;6237051;28;20234;-54
2022/11/23 07:59:47;;;;;;;45.30;28.23;;;1.80;1.00;;;;;;6237922;28;20396;-54
2022/11/23 08:02:52;;;;;;;42.40;27.20;;;2.00;1.00;;;;;;6231757;28;20241;-53
2022/11/23 08:06:16;;;;;;;43.57;27.93;;;2.10;1.00;;;;;;6230986;28;20243;-54
2022/11/23 08:09:19;;;;;;;44.50;28.10;;;2.20;1.00;;;;;;6234878;28;20273;-52
2022/11/23 08:12:22;;;;;;;42.53;26.63;;;2.20;1.00;;;;;;6238201;28;20281;-54
2022/11/23 08:15:26;;;;;;;42.77;27.07;;;2.10;1.00;;;;;;6235136;28;20223;-54
2022/11/23 08:18:31;;;;;;;46.07;27.30;;;2.20;1.00;;;;;;6238824;28;20705;-53
2022/11/23 08:21:34;;;;;;;36.73;25.13;;;2.20;1.00;;;;;;6236939;28;20246;-53
2022/11/23 08:24:37;;;;;;;44.30;27.33;;;2.30;1.00;;;;;;6235039;28;20235;-55
2022/11/23 08:27:39;;;;;;;41.07;25.77;;;2.20;1.00;;;;;;6235567;28;20648;-53
2022/11/23 08:30:43;;;;;;;42.00;25.73;;;2.30;1.00;;;;;;6235366;28;20345;-53
2022/11/23 08:33:47;;;;;;;45.13;27.50;;;2.40;1.00;;;;;;6235793;28;20238;-54
2022/11/23 08:36:50;;;;;;;38.30;26.13;;;2.50;1.00;;;;;;6227318;28;20241;-54
2022/11/23 08:39:53;;;;;;;44.87;27.67;;;2.60;1.00;;;;;;6237125;28;20238;-53
2022/11/23 08:42:56;;;;;;;38.80;25.47;;;2.50;1.00;;;;;;6236880;28;20231;-54
2022/11/23 08:46:00;;;;;;;36.57;25.80;;;2.80;1.00;;;;;;6232172;28;20242;-55
2022/11/23 08:49:11;;;;;;;37.40;24.87;;;2.80;1.00;;;;;;6228584;28;20483;-54
2022/11/23 08:52:14;;;;;;;36.70;25.00;;;2.80;1.00;;;;;;6233869;28;20235;-56
2022/11/23 08:55:17;;;;;;;38.10;26.97;;;2.80;1.00;;;;;;6234866;28;20249;-54
2022/11/23 08:58:20;;;;;;;41.53;26.87;;;2.80;1.00;;;;;;6244000;28;20248;-54
2022/11/23 09:01:23;;;;;;;38.27;25.67;;;2.90;1.00;;;;;;6248518;28;20231;-54
2022/11/23 09:04:29;;;;;;;36.43;25.30;;;2.90;1.00;;;;;;6236459;28;20265;-54
2022/11/23 09:07:32;;;;;;;43.80;26.83;;;3.10;1.00;;;;;;6235311;28;20239;-54
2022/11/23 09:10:36;;;;;;;35.87;25.17;;;3.10;1.00;;;;;;6239278;28;20333;-55
2022/11/23 09:13:39;;;;;;;39.53;26.17;;;3.30;1.00;;;;;;6242216;28;20237;-55
2022/11/23 09:16:42;;;;;;;36.17;24.33;;;3.20;1.00;;;;;;6226403;28;20239;-54
2022/11/23 09:19:49;;;;;;;38.27;24.63;;;3.20;1.00;;;;;;6239964;28;20229;-52
2022/11/23 09:22:52;;;;;;;42.23;25.77;;;3.40;1.00;;;;;;6236104;28;20235;-54
2022/11/23 09:25:58;;;;;;;34.10;25.10;;;3.40;1.00;;;;;;6228091;28;20242;-53
2022/11/23 09:29:01;;;;;;;36.60;24.67;;;3.50;1.00;;;;;;6229829;28;20242;-54
2022/11/23 09:32:04;;;;;;;37.20;25.47;;;3.70;1.00;;;;;;6214062;28;20725;-51
2022/11/23 09:35:09;;;;;;;39.53;25.50;;;3.90;1.00;;;;;;6208909;28;20262;-52
2022/11/23 09:38:12;;;;;;;31.77;24.83;;;4.10;1.00;;;;;;6228159;28;20668;-54
2022/11/23 09:41:31;;;;;;;34.07;24.43;;;4.30;1.00;;;;;;6234170;28;20705;-54
2022/11/23 09:44:51;;;;;;;36.17;24.20;;;4.50;1.00;;;;;;6234599;28;20235;-54
2022/11/23 09:48:10;;;;;;;36.23;24.13;;;4.60;1.00;;;;;;6213302;28;20242;-54
2022/11/23 09:51:17;;;;;;;31.33;22.10;;;4.60;1.00;;;;;;6214752;28;20615;-54
2022/11/23 09:54:28;;;;;;;28.90;22.40;;;4.60;1.00;;;;;;6224964;28;20242;-54
2022/11/23 09:57:34;;;;;;;35.83;23.40;;;4.60;1.00;;;;;;6208313;28;20366;-54
2022/11/23 10:00:41;;;;;;;32.43;22.57;;;4.60;1.00;;;;;;6208763;28;20235;-54
2022/11/23 10:03:45;;;;;;;29.17;21.33;;;4.70;1.00;;;;;;6208141;28;20713;-53
2022/11/23 10:06:56;;;;;;;28.57;21.63;;;4.70;1.00;;;;;;6205625;28;20243;-55
2022/11/23 10:10:08;;;;;;;31.23;21.10;;;4.80;1.00;;;;;;6225016;28;20254;-54
2022/11/23 10:13:26;;;;;;;38.23;23.17;;;4.90;1.00;;;;;;6229199;28;20320;-55
2022/11/23 10:16:40;;;;;;;34.17;22.03;;;5.10;1.00;;;;;;6234961;28;20300;-54
2022/11/23 10:20:01;;;;;;;26.07;20.57;;;5.30;1.00;;;;;;6230260;28;20701;-54
2022/11/23 10:23:17;;;;;;;31.67;20.73;;;5.20;1.00;;;;;;6234875;28;20864;-57
2022/11/23 10:26:21;;;;;;;29.47;20.47;;;5.40;1.00;;;;;;6233080;28;20242;-54
2022/11/23 10:29:28;;;;;;;27.27;19.97;;;5.40;1.00;;;;;;6237850;28;20751;-54
2022/11/23 10:32:36;;;;;;;30.67;21.83;;;5.60;1.00;;;;;;6239646;28;20787;-53
2022/11/23 10:35:39;;;;;;;27.53;19.93;;;5.70;1.00;;;;;;6200833;28;20231;-53
2022/11/23 10:38:44;;;;;;;26.90;20.57;;;5.70;1.00;;;;;;6208516;28;20231;-55
2022/11/23 10:41:47;;;;;;;25.13;19.30;;;5.80;1.00;;;;;;6211004;28;20235;-54
2022/11/23 10:44:52;;;;;;;25.60;18.73;;;5.80;1.00;;;;;;6210931;28;20724;-54
2022/11/23 10:47:58;;;;;;;24.47;19.50;;;6.00;1.00;;;;;;6210647;28;20266;-50
2022/11/23 10:51:16;;;;;;;32.97;20.47;;;6.20;1.00;;;;;;6213161;28;20228;-53
2022/11/23 10:54:24;;;;;;;34.00;22.20;;;6.40;1.00;;;;;;6223006;28;20242;-54
2022/11/23 10:57:32;;;;;;;25.63;20.07;;;6.50;1.00;;;;;;6211977;28;20807;-53
2022/11/23 11:00:35;;;;;;;28.80;19.80;;;6.60;1.00;;;;;;6213479;28;20254;-53
2022/11/23 11:03:38;;;;;;;29.13;20.63;;;6.70;1.00;;;;;;6227938;28;20770;-54
2022/11/23 11:06:41;;;;;;;26.83;21.03;;;6.80;1.00;;;;;;6233251;28;20238;-54
2022/11/23 11:09:49;;;;;;;31.57;20.93;;;6.90;1.00;;;;;;6227699;28;20235;-53
2022/11/23 11:12:52;;;;;;;28.30;21.53;;;7.10;1.00;;;;;;6231959;28;20234;-54
2022/11/23 11:15:57;;;;;;;24.80;18.73;;;7.10;1.00;;;;;;6233590;28;20230;-53
2022/11/23 11:19:20;;;;;;;27.00;20.00;;;7.10;1.00;;;;;;6230899;28;20239;-55
2022/11/23 11:22:32;;;;;;;25.17;18.47;;;7.20;1.00;;;;;;6202814;28;20713;-54
2022/11/23 11:25:38;;;;;;;26.67;20.27;;;7.30;1.00;;;;;;6204459;28;20592;-55
2022/11/23 11:28:43;;;;;;;20.87;18.03;;;7.20;1.00;;;;;;6209202;28;20240;-53
2022/11/23 11:31:54;;;;;;;24.17;19.00;;;7.30;1.00;;;;;;6213527;28;20659;-55
2022/11/23 11:35:03;;;;;;;28.10;19.97;;;7.30;1.00;;;;;;6219611;28;20386;-54
2022/11/23 11:38:14;;;;;;;25.47;19.33;;;7.30;1.00;;;;;;6231388;28;20478;-53
2022/11/23 11:41:24;;;;;;;25.73;18.50;;;7.40;1.00;;;;;;6234595;28;20393;-54
2022/11/23 11:44:27;;;;;;;23.07;18.83;;;7.50;1.00;;;;;;6232957;28;20238;-54
2022/11/23 11:47:36;;;;;;;23.00;18.50;;;7.40;1.00;;;;;;6225963;28;20776;-54
2022/11/23 11:50:48;;;;;;;22.97;18.07;;;7.60;1.00;;;;;;6236996;28;20238;-54
2022/11/23 11:53:56;;;;;;;27.03;18.40;;;7.60;1.00;;;;;;6239504;28;20242;-54
2022/11/23 11:57:05;;;;;;;25.80;18.97;;;7.70;1.00;;;;;;6235992;28;20498;-53
2022/11/23 12:00:13;;;;;;;24.43;18.70;;;7.70;1.00;;;;;;6231037;28;20258;-54
2022/11/23 12:03:25;;;;;;;25.43;18.97;;;7.70;1.00;;;;;;6231013;28;20241;-54
2022/11/23 12:06:34;;;;;;;28.60;19.23;;;7.70;1.00;;;;;;6232992;28;20689;-54
2022/11/23 12:09:43;;;;;;;21.73;17.73;;;7.60;1.00;;;;;;6237028;28;20223;-54
2022/11/23 12:12:48;;;;;;;20.63;17.03;;;7.80;1.00;;;;;;6234214;28;20728;-55
2022/11/23 12:16:00;;;;;;;25.13;19.33;;;7.90;1.00;;;;;;6236982;28;20602;-54
2022/11/23 12:19:13;;;;;;;26.93;18.97;;;8.00;1.00;;;;;;6242475;28;20247;-56
2022/11/23 12:22:35;;;;;;;23.97;17.40;;;7.90;1.00;;;;;;6237494;28;20507;-53
2022/11/23 12:25:40;;;;;;;23.23;17.90;;;7.90;1.00;;;;;;6238069;28;20258;-55
2022/11/23 12:29:04;;;;;;;25.97;18.80;;;7.80;1.00;;;;;;6242981;28;20728;-55
2022/11/23 12:32:19;;;;;;;23.73;18.47;;;7.80;1.00;;;;;;6220211;28;20238;-53
2022/11/23 12:35:41;;;;;;;23.70;17.53;;;7.70;1.00;;;;;;6234964;28;20238;-54
2022/11/23 12:38:54;;;;;;;25.50;17.20;;;7.60;1.00;;;;;;6227935;28;20243;-53
2022/11/23 12:42:04;;;;;;;21.37;18.00;;;7.50;1.00;;;;;;6221047;28;20597;-53
2022/11/23 12:45:24;;;;;;;19.53;16.63;;;7.50;1.00;;;;;;6221790;28;20645;-54
2022/11/23 12:48:50;;;;;;;22.47;18.47;;;7.50;1.00;;;;;;6227439;28;20351;-53
2022/11/23 12:52:00;;;;;;;25.40;18.37;;;7.40;1.00;;;;;;6212179;28;20235;-54
2022/11/23 12:55:18;;;;;;;23.97;18.73;;;7.40;1.00;;;;;;6217931;28;20243;-53
2022/11/23 12:58:27;;;;;;;22.10;17.53;;;7.40;1.00;;;;;;6212058;28;20250;-54
2022/11/23 13:01:36;;;;;;;25.20;19.03;;;7.30;1.00;;;;;;6243490;28;20234;-54
2022/11/23 13:04:59;;;;;;;22.87;18.43;;;7.40;1.00;;;;;;6231632;28;20237;-53
2022/11/23 13:08:20;;;;;;;18.77;15.77;;;7.40;1.00;;;;;;6235975;28;20266;-49
2022/11/23 13:11:37;;;;;;;22.60;18.23;;;7.40;1.00;;;;;;6236927;28;20238;-54
2022/11/23 13:14:48;;;;;;;22.97;17.40;;;7.40;1.00;;;;;;6233608;28;20223;-54
2022/11/23 13:18:01;;;;;;;23.60;17.07;;;7.40;1.00;;;;;;6234992;28;20249;-54
2022/11/23 13:21:17;;;;;;;22.70;17.57;;;7.50;1.00;;;;;;6234999;28;20242;-52
2022/11/23 13:24:29;;;;;;;22.80;18.17;;;7.50;1.00;;;;;;6232265;28;20622;-55
2022/11/23 13:27:45;;;;;;;25.70;18.20;;;7.40;1.00;;;;;;6235705;28;20400;-54
2022/11/23 13:31:19;;;;;;;24.03;17.53;;;7.40;1.00;;;;;;6233412;28;20443;-53
2022/11/23 13:34:44;;;;;;;18.67;16.13;;;7.50;1.00;;;;;;6223330;28;20236;-53
2022/11/23 13:38:23;;;;;;;19.70;16.03;;;7.50;1.00;;;;;;6216132;28;20257;-54
2022/11/23 13:41:59;;;;;;;19.53;14.83;;;7.50;1.00;;;;;;6204946;28;20231;-54
2022/11/23 13:45:27;;;;;;;18.07;15.47;;;7.50;1.00;;;;;;6199830;28;20244;-54
2022/11/23 13:48:30;;;;;;;15.60;13.97;;;7.50;1.00;;;;;;6210856;28;20304;-54
2022/11/23 13:52:25;;;;;;;20.67;15.67;;;7.40;1.00;;;;;;6205755;28;20280;-53
2022/11/23 13:55:34;;;;;;;23.30;16.10;;;7.40;1.00;;;;;;6204453;28;20235;-53
2022/11/23 13:58:39;;;;;;;18.70;15.60;;;7.30;1.00;;;;;;6209701;28;20235;-53
2022/11/23 14:01:59;;;;;;;18.83;16.00;;;7.40;1.00;;;;;;6236994;28;20231;-54
2022/11/23 14:05:50;;;;;;;17.27;15.47;;;7.10;1.00;;;;;;6241253;28;20245;-54
2022/11/23 14:09:04;;;;;;;19.33;14.70;;;7.10;1.00;;;;;;6222400;28;20240;-54
2022/11/23 14:12:17;;;;;;;18.83;14.60;;;7.10;1.00;;;;;;6215215;28;20246;-54
2022/11/23 14:15:21;;;;;;;18.33;14.97;;;7.10;1.00;;;;;;6222811;28;20235;-54
2022/11/23 14:18:51;;;;;;;18.87;15.13;;;7.10;1.00;;;;;;6244593;28;20417;-53
2022/11/23 14:22:02;;;;;;;18.50;14.23;;;7.10;1.00;;;;;;6232834;28;20239;-55
2022/11/23 14:25:36;;;;;;;18.37;14.67;;;7.10;1.00;;;;;;6237131;28;20307;-55
2022/11/23 14:28:48;;;;;;;17.13;13.97;;;7.00;1.00;;;;;;6207230;28;20431;-54
2022/11/23 14:32:07;;;;;;;17.93;16.03;;;7.00;1.00;;;;;;6207392;28;20242;-55
2022/11/23 14:35:23;;;;;;;19.23;15.00;;;6.90;1.00;;;;;;6206823;28;20729;-54
2022/11/23 14:38:56;;;;;;;17.80;15.30;;;6.80;1.00;;;;;;6216244;28;20385;-53
2022/11/23 14:42:05;;;;;;;21.40;15.23;;;6.70;1.00;;;;;;6234319;28;20242;-54
2022/11/23 14:45:14;;;;;;;20.50;16.20;;;6.80;1.00;;;;;;6230045;28;20235;-56
2022/11/23 14:48:20;;;;;;;20.07;15.90;;;6.50;1.00;;;;;;6231418;28;20318;-55
2022/11/23 14:51:26;;;;;;;18.47;15.77;;;6.40;1.00;;;;;;6235633;28;20233;-55
2022/11/23 14:54:29;;;;;;;21.93;16.03;;;6.30;1.00;;;;;;6234086;28;20227;-53
2022/11/23 14:57:40;;;;;;;19.70;15.97;;;6.30;1.00;;;;;;6232888;28;20551;-53
2022/11/23 15:00:44;;;;;;;22.90;17.70;;;6.20;1.00;;;;;;6232278;28;20262;-54
2022/11/23 15:03:56;;;;;;;21.20;16.20;;;6.10;1.00;;;;;;6229952;28;20234;-55
2022/11/23 15:07:02;;;;;;;21.67;16.50;;;6.00;1.00;;;;;;6212901;28;20251;-53
2022/11/23 15:10:17;;;;;;;20.23;16.57;;;5.90;1.00;;;;;;6207518;28;20651;-55
2022/11/23 15:13:25;;;;;;;22.90;17.73;;;5.80;1.00;;;;;;6209188;28;20246;-53
2022/11/23 15:16:29;;;;;;;24.73;18.03;;;5.80;1.00;;;;;;6203719;28;20706;-54
2022/11/23 15:19:32;;;;;;;24.00;17.47;;;5.70;1.00;;;;;;6207849;28;20305;-55
2022/11/23 15:22:36;;;;;;;21.83;17.37;;;5.70;1.00;;;;;;6214962;28;20579;-53
2022/11/23 15:25:51;;;;;;;23.50;17.53;;;5.60;1.00;;;;;;6212880;28;20518;-51
2022/11/23 15:28:55;;;;;;;22.90;17.33;;;5.50;1.00;;;;;;6207917;28;20239;-54
2022/11/23 15:31:58;;;;;;;25.67;16.70;;;5.50;1.00;;;;;;6217179;28;20243;-54
2022/11/23 15:35:23;;;;;;;18.67;15.30;;;5.40;1.00;;;;;;6215933;28;20734;-55
2022/11/23 15:38:26;;;;;;;20.67;16.53;;;5.40;1.00;;;;;;6207610;28;20486;-54
2022/11/23 15:41:30;;;;;;;18.07;15.87;;;5.30;1.00;;;;;;6218011;28;20240;-58
2022/11/23 15:44:38;;;;;;;22.93;16.47;;;5.30;1.00;;;;;;6217095;28;20228;-54
2022/11/23 15:47:41;;;;;;;22.50;16.47;;;5.30;1.00;;;;;;6214506;28;20240;-55
2022/11/23 15:50:49;;;;;;;23.53;16.70;;;5.30;1.00;;;;;;6212138;28;20239;-54
2022/11/23 15:53:53;;;;;;;22.10;17.13;;;5.30;1.00;;;;;;6211912;28;20928;-54
2022/11/23 15:56:57;;;;;;;23.23;18.43;;;5.50;1.00;;;;;;6219641;28;20435;-54
2022/11/23 16:00:05;;;;;;;27.13;18.57;;;5.30;1.00;;;;;;6223429;28;20239;-54
2022/11/23 16:03:33;;;;;;;22.87;17.93;;;5.30;1.00;;;;;;6220952;28;20236;-53
2022/11/23 16:06:39;;;;;;;24.53;18.07;;;5.40;1.00;;;;;;6233880;28;20234;-53
2022/11/23 16:09:46;;;;;;;21.90;17.73;;;5.50;1.00;;;;;;6235882;28;20223;-55
2022/11/23 16:12:58;;;;;;;22.73;17.57;;;5.20;1.00;;;;;;6245265;28;20245;-54
2022/11/23 16:16:05;;;;;;;23.70;17.67;;;5.30;1.00;;;;;;6237431;28;20242;-53